sensor_id;sensor_type;location;lat;lon;timestamp;P1;durP1;ratioP1;P2;durP2;ratioP2
60032;SDS011;45905;50.570;10.428;2023-08-12T00:00:33;4.63;;;1.73;;
60032;SDS011;45905;50.570;10.428;2023-08-12T00:03:00;3.37;;;1.40;;
60032;SDS011;45905;50.570;10.428;2023-08-12T00:05:28;1.80;;;1.43;;
60032;SDS011;45905;50.570;10.428;2023-08-12T00:07:56;3.80;;;1.90;;
60032;SDS011;45905;50.570;10.428;2023-08-12T00:10:23;2.97;;;1.50;;
60032;SDS011;45905;50.570;10.428;2023-08-12T00:12:50;2.47;;;2.27;;
60032;SDS011;45905;50.570;10.428;2023-08-12T00:15:18;2.90;;;2.20;;
60032;SDS011;45905;50.570;10.428;2023-08-12T00:17:45;1.40;;;1.10;;
60032;SDS011;45905;50.570;10.428;2023-08-12T00:20:12;2.40;;;1.70;;
60032;SDS011;45905;50.570;10.428;2023-08-12T00:22:40;2.20;;;1.60;;
60032;SDS011;45905;50.570;10.428;2023-08-12T00:25:07;2.00;;;1.73;;
60032;SDS011;45905;50.570;10.428;2023-08-12T00:27:35;3.40;;;1.80;;
60032;SDS011;45905;50.570;10.428;2023-08-12T00:30:04;7.43;;;1.90;;
60032;SDS011;45905;50.570;10.428;2023-08-12T00:32:32;3.40;;;1.57;;
60032;SDS011;45905;50.570;10.428;2023-08-12T00:34:59;8.47;;;1.80;;
60032;SDS011;45905;50.570;10.428;2023-08-12T00:37:26;3.43;;;2.00;;
60032;SDS011;45905;50.570;10.428;2023-08-12T00:39:54;1.77;;;1.60;;
60032;SDS011;45905;50.570;10.428;2023-08-12T00:42:22;2.30;;;1.93;;
60032;SDS011;45905;50.570;10.428;2023-08-12T00:44:49;2.60;;;1.77;;
60032;SDS011;45905;50.570;10.428;2023-08-12T00:47:17;4.33;;;2.17;;
60032;SDS011;45905;50.570;10.428;2023-08-12T00:49:45;3.20;;;1.93;;
60032;SDS011;45905;50.570;10.428;2023-08-12T00:52:12;4.63;;;1.90;;
60032;SDS011;45905;50.570;10.428;2023-08-12T00:54:41;4.13;;;2.43;;
60032;SDS011;45905;50.570;10.428;2023-08-12T00:57:09;11.27;;;3.83;;
60032;SDS011;45905;50.570;10.428;2023-08-12T00:59:36;3.50;;;1.80;;
60032;SDS011;45905;50.570;10.428;2023-08-12T01:02:08;2.90;;;2.03;;
60032;SDS011;45905;50.570;10.428;2023-08-12T01:04:35;2.67;;;1.73;;
60032;SDS011;45905;50.570;10.428;2023-08-12T01:07:02;3.40;;;2.30;;
60032;SDS011;45905;50.570;10.428;2023-08-12T01:09:30;6.30;;;2.40;;
60032;SDS011;45905;50.570;10.428;2023-08-12T01:17:19;2.53;;;2.07;;
60032;SDS011;45905;50.570;10.428;2023-08-12T01:19:47;3.13;;;1.60;;
60032;SDS011;45905;50.570;10.428;2023-08-12T01:22:18;2.53;;;2.20;;
60032;SDS011;45905;50.570;10.428;2023-08-12T01:24:51;2.63;;;1.77;;
60032;SDS011;45905;50.570;10.428;2023-08-12T01:27:18;2.77;;;2.07;;
60032;SDS011;45905;50.570;10.428;2023-08-12T01:29:48;3.17;;;2.60;;
60032;SDS011;45905;50.570;10.428;2023-08-12T01:32:32;3.73;;;2.43;;
60032;SDS011;45905;50.570;10.428;2023-08-12T01:37:52;3.97;;;2.37;;
60032;SDS011;45905;50.570;10.428;2023-08-12T01:40:24;2.20;;;2.00;;
60032;SDS011;45905;50.570;10.428;2023-08-12T01:42:52;2.03;;;1.83;;
60032;SDS011;45905;50.570;10.428;2023-08-12T01:45:20;3.37;;;1.97;;
60032;SDS011;45905;50.570;10.428;2023-08-12T01:47:49;2.70;;;2.00;;
60032;SDS011;45905;50.570;10.428;2023-08-12T01:50:17;3.17;;;1.77;;
60032;SDS011;45905;50.570;10.428;2023-08-12T01:52:45;2.27;;;1.70;;
60032;SDS011;45905;50.570;10.428;2023-08-12T01:55:12;4.33;;;1.93;;
60032;SDS011;45905;50.570;10.428;2023-08-12T01:57:40;1.67;;;1.57;;
60032;SDS011;45905;50.570;10.428;2023-08-12T02:00:07;2.23;;;2.03;;
60032;SDS011;45905;50.570;10.428;2023-08-12T02:02:44;2.33;;;2.13;;
60032;SDS011;45905;50.570;10.428;2023-08-12T02:05:14;3.63;;;2.20;;
60032;SDS011;45905;50.570;10.428;2023-08-12T02:07:42;4.67;;;2.40;;
60032;SDS011;45905;50.570;10.428;2023-08-12T02:10:09;3.37;;;2.17;;
60032;SDS011;45905;50.570;10.428;2023-08-12T02:12:37;2.10;;;1.80;;
60032;SDS011;45905;50.570;10.428;2023-08-12T02:15:05;2.40;;;1.90;;
60032;SDS011;45905;50.570;10.428;2023-08-12T02:17:33;3.87;;;2.30;;
60032;SDS011;45905;50.570;10.428;2023-08-12T02:20:00;3.17;;;2.13;;
60032;SDS011;45905;50.570;10.428;2023-08-12T02:22:29;3.10;;;2.17;;
60032;SDS011;45905;50.570;10.428;2023-08-12T02:24:56;2.77;;;1.90;;
60032;SDS011;45905;50.570;10.428;2023-08-12T02:27:23;3.43;;;2.00;;
60032;SDS011;45905;50.570;10.428;2023-08-12T02:29:51;2.40;;;2.20;;
60032;SDS011;45905;50.570;10.428;2023-08-12T02:32:18;3.17;;;1.53;;
60032;SDS011;45905;50.570;10.428;2023-08-12T02:34:45;3.70;;;2.43;;
60032;SDS011;45905;50.570;10.428;2023-08-12T02:37:12;2.40;;;2.20;;
60032;SDS011;45905;50.570;10.428;2023-08-12T02:39:40;2.80;;;2.27;;
60032;SDS011;45905;50.570;10.428;2023-08-12T02:42:07;3.30;;;2.20;;
60032;SDS011;45905;50.570;10.428;2023-08-12T02:44:34;3.80;;;2.20;;
60032;SDS011;45905;50.570;10.428;2023-08-12T02:47:01;3.80;;;2.20;;
60032;SDS011;45905;50.570;10.428;2023-08-12T02:49:29;3.30;;;2.00;;
60032;SDS011;45905;50.570;10.428;2023-08-12T02:51:56;4.80;;;2.43;;
60032;SDS011;45905;50.570;10.428;2023-08-12T02:54:23;4.50;;;2.40;;
60032;SDS011;45905;50.570;10.428;2023-08-12T02:56:50;3.77;;;2.37;;
60032;SDS011;45905;50.570;10.428;2023-08-12T02:59:17;3.77;;;2.30;;
60032;SDS011;45905;50.570;10.428;2023-08-12T03:01:45;3.60;;;1.97;;
60032;SDS011;45905;50.570;10.428;2023-08-12T03:04:12;2.67;;;2.00;;
60032;SDS011;45905;50.570;10.428;2023-08-12T03:06:39;2.37;;;2.00;;
60032;SDS011;45905;50.570;10.428;2023-08-12T03:09:07;3.77;;;2.40;;
60032;SDS011;45905;50.570;10.428;2023-08-12T03:11:34;3.03;;;1.90;;
60032;SDS011;45905;50.570;10.428;2023-08-12T03:14:03;3.43;;;1.93;;
60032;SDS011;45905;50.570;10.428;2023-08-12T03:16:31;5.00;;;2.60;;
60032;SDS011;45905;50.570;10.428;2023-08-12T03:18:58;1.83;;;1.67;;
60032;SDS011;45905;50.570;10.428;2023-08-12T03:21:25;2.00;;;1.70;;
60032;SDS011;45905;50.570;10.428;2023-08-12T03:23:53;2.07;;;1.90;;
60032;SDS011;45905;50.570;10.428;2023-08-12T03:26:20;4.67;;;2.40;;
60032;SDS011;45905;50.570;10.428;2023-08-12T03:28:48;5.27;;;2.70;;
60032;SDS011;45905;50.570;10.428;2023-08-12T03:31:18;5.07;;;2.17;;
60032;SDS011;45905;50.570;10.428;2023-08-12T03:33:46;2.77;;;2.13;;
60032;SDS011;45905;50.570;10.428;2023-08-12T03:36:14;2.93;;;2.17;;
60032;SDS011;45905;50.570;10.428;2023-08-12T03:38:41;3.27;;;2.03;;
60032;SDS011;45905;50.570;10.428;2023-08-12T03:41:13;3.80;;;2.53;;
60032;SDS011;45905;50.570;10.428;2023-08-12T03:43:41;3.93;;;2.83;;
60032;SDS011;45905;50.570;10.428;2023-08-12T03:46:09;5.87;;;2.90;;
60032;SDS011;45905;50.570;10.428;2023-08-12T03:48:37;6.30;;;2.37;;
60032;SDS011;45905;50.570;10.428;2023-08-12T03:51:04;7.33;;;2.90;;
60032;SDS011;45905;50.570;10.428;2023-08-12T03:53:32;2.73;;;2.17;;
60032;SDS011;45905;50.570;10.428;2023-08-12T03:56:00;4.73;;;2.80;;
60032;SDS011;45905;50.570;10.428;2023-08-12T03:58:28;6.63;;;2.80;;
60032;SDS011;45905;50.570;10.428;2023-08-12T04:00:57;2.80;;;2.40;;
60032;SDS011;45905;50.570;10.428;2023-08-12T04:03:24;3.70;;;3.00;;
60032;SDS011;45905;50.570;10.428;2023-08-12T04:05:52;3.03;;;2.73;;
60032;SDS011;45905;50.570;10.428;2023-08-12T04:08:21;3.77;;;2.43;;
60032;SDS011;45905;50.570;10.428;2023-08-12T04:10:50;2.33;;;1.60;;
60032;SDS011;45905;50.570;10.428;2023-08-12T04:13:18;3.80;;;2.53;;
60032;SDS011;45905;50.570;10.428;2023-08-12T04:15:49;3.70;;;2.63;;
60032;SDS011;45905;50.570;10.428;2023-08-12T04:18:19;3.13;;;2.83;;
60032;SDS011;45905;50.570;10.428;2023-08-12T04:20:49;3.60;;;2.70;;
60032;SDS011;45905;50.570;10.428;2023-08-12T04:23:17;4.20;;;2.57;;
60032;SDS011;45905;50.570;10.428;2023-08-12T04:25:46;5.30;;;2.80;;
60032;SDS011;45905;50.570;10.428;2023-08-12T04:28:15;12.23;;;2.80;;
60032;SDS011;45905;50.570;10.428;2023-08-12T04:30:46;3.20;;;2.10;;
60032;SDS011;45905;50.570;10.428;2023-08-12T04:33:15;2.30;;;1.97;;
60032;SDS011;45905;50.570;10.428;2023-08-12T04:35:44;2.70;;;2.10;;
60032;SDS011;45905;50.570;10.428;2023-08-12T04:38:12;3.23;;;2.33;;
60032;SDS011;45905;50.570;10.428;2023-08-12T04:40:41;5.43;;;2.93;;
60032;SDS011;45905;50.570;10.428;2023-08-12T04:43:09;5.20;;;2.57;;
60032;SDS011;45905;50.570;10.428;2023-08-12T04:45:37;2.53;;;2.10;;
60032;SDS011;45905;50.570;10.428;2023-08-12T04:48:05;5.07;;;2.63;;
60032;SDS011;45905;50.570;10.428;2023-08-12T04:50:35;5.43;;;3.13;;
60032;SDS011;45905;50.570;10.428;2023-08-12T04:53:02;6.33;;;3.00;;
60032;SDS011;45905;50.570;10.428;2023-08-12T04:55:30;5.23;;;3.30;;
60032;SDS011;45905;50.570;10.428;2023-08-12T04:57:59;4.97;;;2.83;;
60032;SDS011;45905;50.570;10.428;2023-08-12T05:00:28;4.07;;;2.40;;
60032;SDS011;45905;50.570;10.428;2023-08-12T05:02:57;2.90;;;1.93;;
60032;SDS011;45905;50.570;10.428;2023-08-12T05:05:25;3.00;;;2.53;;
60032;SDS011;45905;50.570;10.428;2023-08-12T05:07:53;2.93;;;2.60;;
60032;SDS011;45905;50.570;10.428;2023-08-12T05:10:21;4.27;;;3.03;;
60032;SDS011;45905;50.570;10.428;2023-08-12T05:12:50;2.10;;;1.90;;
60032;SDS011;45905;50.570;10.428;2023-08-12T05:15:19;4.40;;;2.67;;
60032;SDS011;45905;50.570;10.428;2023-08-12T05:17:47;3.20;;;2.13;;
60032;SDS011;45905;50.570;10.428;2023-08-12T05:20:18;2.47;;;2.27;;
60032;SDS011;45905;50.570;10.428;2023-08-12T05:22:46;3.63;;;2.67;;
60032;SDS011;45905;50.570;10.428;2023-08-12T05:25:13;5.10;;;2.80;;
60032;SDS011;45905;50.570;10.428;2023-08-12T05:27:40;3.23;;;2.30;;
60032;SDS011;45905;50.570;10.428;2023-08-12T05:30:08;17.20;;;2.80;;
60032;SDS011;45905;50.570;10.428;2023-08-12T05:32:36;3.53;;;2.20;;
60032;SDS011;45905;50.570;10.428;2023-08-12T05:35:03;2.73;;;2.43;;
60032;SDS011;45905;50.570;10.428;2023-08-12T05:37:31;5.10;;;2.90;;
60032;SDS011;45905;50.570;10.428;2023-08-12T05:39:58;3.50;;;2.83;;
60032;SDS011;45905;50.570;10.428;2023-08-12T05:42:26;4.37;;;2.70;;
60032;SDS011;45905;50.570;10.428;2023-08-12T05:44:53;5.13;;;3.00;;
60032;SDS011;45905;50.570;10.428;2023-08-12T05:47:20;4.20;;;2.50;;
60032;SDS011;45905;50.570;10.428;2023-08-12T05:49:48;4.67;;;2.80;;
60032;SDS011;45905;50.570;10.428;2023-08-12T05:52:15;6.70;;;2.33;;
60032;SDS011;45905;50.570;10.428;2023-08-12T05:54:42;5.57;;;2.97;;
60032;SDS011;45905;50.570;10.428;2023-08-12T05:57:10;3.93;;;2.67;;
60032;SDS011;45905;50.570;10.428;2023-08-12T05:59:37;5.20;;;3.30;;
60032;SDS011;45905;50.570;10.428;2023-08-12T06:02:05;3.03;;;2.73;;
60032;SDS011;45905;50.570;10.428;2023-08-12T06:04:32;3.33;;;2.57;;
60032;SDS011;45905;50.570;10.428;2023-08-12T06:07:00;3.83;;;2.67;;
60032;SDS011;45905;50.570;10.428;2023-08-12T06:09:27;4.03;;;2.77;;
60032;SDS011;45905;50.570;10.428;2023-08-12T06:11:54;4.13;;;3.30;;
60032;SDS011;45905;50.570;10.428;2023-08-12T06:14:21;13.80;;;3.80;;
60032;SDS011;45905;50.570;10.428;2023-08-12T06:16:48;11.30;;;3.97;;
60032;SDS011;45905;50.570;10.428;2023-08-12T06:19:16;7.27;;;4.60;;
60032;SDS011;45905;50.570;10.428;2023-08-12T06:21:43;5.97;;;2.93;;
60032;SDS011;45905;50.570;10.428;2023-08-12T06:24:11;7.40;;;3.57;;
60032;SDS011;45905;50.570;10.428;2023-08-12T06:26:38;5.20;;;3.30;;
60032;SDS011;45905;50.570;10.428;2023-08-12T06:29:05;6.33;;;3.30;;
60032;SDS011;45905;50.570;10.428;2023-08-12T06:31:32;6.93;;;3.17;;
60032;SDS011;45905;50.570;10.428;2023-08-12T06:33:59;4.90;;;2.70;;
60032;SDS011;45905;50.570;10.428;2023-08-12T06:36:27;7.73;;;3.20;;
60032;SDS011;45905;50.570;10.428;2023-08-12T06:38:55;4.20;;;3.80;;
60032;SDS011;45905;50.570;10.428;2023-08-12T06:41:22;5.67;;;4.27;;
60032;SDS011;45905;50.570;10.428;2023-08-12T06:43:49;7.53;;;2.80;;
60032;SDS011;45905;50.570;10.428;2023-08-12T06:46:17;7.03;;;3.13;;
60032;SDS011;45905;50.570;10.428;2023-08-12T06:48:44;3.90;;;3.10;;
60032;SDS011;45905;50.570;10.428;2023-08-12T06:51:11;3.23;;;2.90;;
60032;SDS011;45905;50.570;10.428;2023-08-12T06:53:39;6.43;;;3.33;;
60032;SDS011;45905;50.570;10.428;2023-08-12T06:56:06;3.53;;;3.20;;
60032;SDS011;45905;50.570;10.428;2023-08-12T06:58:33;4.47;;;3.93;;
60032;SDS011;45905;50.570;10.428;2023-08-12T07:01:01;4.60;;;3.07;;
60032;SDS011;45905;50.570;10.428;2023-08-12T07:03:28;3.60;;;3.23;;
60032;SDS011;45905;50.570;10.428;2023-08-12T07:05:56;4.37;;;3.13;;
60032;SDS011;45905;50.570;10.428;2023-08-12T07:08:25;4.47;;;3.47;;
60032;SDS011;45905;50.570;10.428;2023-08-12T07:10:53;3.57;;;2.90;;
60032;SDS011;45905;50.570;10.428;2023-08-12T07:13:23;4.77;;;3.20;;
60032;SDS011;45905;50.570;10.428;2023-08-12T07:15:53;15.37;;;2.90;;
60032;SDS011;45905;50.570;10.428;2023-08-12T07:18:21;3.97;;;2.87;;
60032;SDS011;45905;50.570;10.428;2023-08-12T07:20:49;6.23;;;3.70;;
60032;SDS011;45905;50.570;10.428;2023-08-12T07:23:17;4.70;;;3.20;;
60032;SDS011;45905;50.570;10.428;2023-08-12T07:25:45;3.97;;;2.93;;
60032;SDS011;45905;50.570;10.428;2023-08-12T07:28:13;10.47;;;4.53;;
60032;SDS011;45905;50.570;10.428;2023-08-12T07:30:41;11.13;;;4.10;;
60032;SDS011;45905;50.570;10.428;2023-08-12T07:33:08;4.70;;;2.63;;
60032;SDS011;45905;50.570;10.428;2023-08-12T07:35:36;5.80;;;4.20;;
60032;SDS011;45905;50.570;10.428;2023-08-12T07:38:03;5.17;;;3.77;;
60032;SDS011;45905;50.570;10.428;2023-08-12T07:40:30;4.90;;;3.50;;
60032;SDS011;45905;50.570;10.428;2023-08-12T07:42:57;8.33;;;4.17;;
60032;SDS011;45905;50.570;10.428;2023-08-12T07:45:25;3.40;;;2.50;;
60032;SDS011;45905;50.570;10.428;2023-08-12T07:47:52;8.13;;;3.80;;
60032;SDS011;45905;50.570;10.428;2023-08-12T07:50:20;7.10;;;4.60;;
60032;SDS011;45905;50.570;10.428;2023-08-12T07:52:47;6.70;;;4.20;;
60032;SDS011;45905;50.570;10.428;2023-08-12T07:55:14;5.73;;;3.33;;
60032;SDS011;45905;50.570;10.428;2023-08-12T07:57:44;4.33;;;3.10;;
60032;SDS011;45905;50.570;10.428;2023-08-12T08:00:12;39.17;;;4.87;;
60032;SDS011;45905;50.570;10.428;2023-08-12T08:02:39;4.23;;;3.03;;
60032;SDS011;45905;50.570;10.428;2023-08-12T08:05:07;4.27;;;2.97;;
60032;SDS011;45905;50.570;10.428;2023-08-12T08:07:34;5.07;;;4.50;;
60032;SDS011;45905;50.570;10.428;2023-08-12T08:10:02;4.87;;;3.53;;
60032;SDS011;45905;50.570;10.428;2023-08-12T08:12:30;5.20;;;3.53;;
60032;SDS011;45905;50.570;10.428;2023-08-12T08:14:57;10.93;;;4.20;;
60032;SDS011;45905;50.570;10.428;2023-08-12T08:17:24;14.03;;;4.93;;
60032;SDS011;45905;50.570;10.428;2023-08-12T08:19:51;6.00;;;3.80;;
60032;SDS011;45905;50.570;10.428;2023-08-12T08:22:19;9.17;;;3.67;;
60032;SDS011;45905;50.570;10.428;2023-08-12T08:24:46;4.30;;;2.80;;
60032;SDS011;45905;50.570;10.428;2023-08-12T08:27:13;4.00;;;2.73;;
60032;SDS011;45905;50.570;10.428;2023-08-12T08:29:40;4.50;;;2.93;;
60032;SDS011;45905;50.570;10.428;2023-08-12T08:32:08;6.00;;;2.90;;
60032;SDS011;45905;50.570;10.428;2023-08-12T08:34:35;8.03;;;3.50;;
60032;SDS011;45905;50.570;10.428;2023-08-12T08:37:03;3.87;;;2.83;;
60032;SDS011;45905;50.570;10.428;2023-08-12T08:39:30;5.83;;;3.57;;
60032;SDS011;45905;50.570;10.428;2023-08-12T08:41:58;5.30;;;3.40;;
60032;SDS011;45905;50.570;10.428;2023-08-12T08:44:27;3.93;;;3.37;;
60032;SDS011;45905;50.570;10.428;2023-08-12T08:46:59;4.83;;;3.30;;
60032;SDS011;45905;50.570;10.428;2023-08-12T08:49:27;6.13;;;3.77;;
60032;SDS011;45905;50.570;10.428;2023-08-12T08:51:58;5.80;;;3.80;;
60032;SDS011;45905;50.570;10.428;2023-08-12T08:54:26;4.27;;;3.03;;
60032;SDS011;45905;50.570;10.428;2023-08-12T08:56:54;4.60;;;3.00;;
60032;SDS011;45905;50.570;10.428;2023-08-12T08:59:28;4.00;;;3.23;;
60032;SDS011;45905;50.570;10.428;2023-08-12T09:01:56;7.97;;;2.50;;
60032;SDS011;45905;50.570;10.428;2023-08-12T09:04:25;9.07;;;3.40;;
60032;SDS011;45905;50.570;10.428;2023-08-12T09:06:55;4.20;;;3.03;;
60032;SDS011;45905;50.570;10.428;2023-08-12T09:09:23;3.33;;;2.90;;
60032;SDS011;45905;50.570;10.428;2023-08-12T09:11:51;5.10;;;3.03;;
60032;SDS011;45905;50.570;10.428;2023-08-12T09:14:21;8.87;;;3.60;;
60032;SDS011;45905;50.570;10.428;2023-08-12T09:16:50;5.00;;;3.83;;
60032;SDS011;45905;50.570;10.428;2023-08-12T09:19:17;4.80;;;3.57;;
60032;SDS011;45905;50.570;10.428;2023-08-12T09:21:44;9.50;;;5.57;;
60032;SDS011;45905;50.570;10.428;2023-08-12T09:24:23;10.00;;;4.37;;
60032;SDS011;45905;50.570;10.428;2023-08-12T09:26:52;4.47;;;3.00;;
60032;SDS011;45905;50.570;10.428;2023-08-12T09:29:22;4.40;;;3.00;;
60032;SDS011;45905;50.570;10.428;2023-08-12T09:31:53;6.30;;;3.30;;
60032;SDS011;45905;50.570;10.428;2023-08-12T09:34:20;3.90;;;3.27;;
60032;SDS011;45905;50.570;10.428;2023-08-12T09:36:50;3.00;;;2.70;;
60032;SDS011;45905;50.570;10.428;2023-08-12T09:39:18;5.10;;;3.10;;
60032;SDS011;45905;50.570;10.428;2023-08-12T09:41:45;5.43;;;2.57;;
60032;SDS011;45905;50.570;10.428;2023-08-12T09:44:13;5.37;;;4.00;;
60032;SDS011;45905;50.570;10.428;2023-08-12T09:46:41;9.20;;;3.20;;
60032;SDS011;45905;50.570;10.428;2023-08-12T09:49:08;6.10;;;2.80;;
60032;SDS011;45905;50.570;10.428;2023-08-12T09:51:36;4.27;;;3.23;;
60032;SDS011;45905;50.570;10.428;2023-08-12T09:54:03;4.50;;;3.77;;
60032;SDS011;45905;50.570;10.428;2023-08-12T09:56:33;7.07;;;3.87;;
60032;SDS011;45905;50.570;10.428;2023-08-12T09:59:06;7.07;;;4.20;;
60032;SDS011;45905;50.570;10.428;2023-08-12T10:01:35;7.33;;;4.00;;
60032;SDS011;45905;50.570;10.428;2023-08-12T10:04:05;6.17;;;4.20;;
60032;SDS011;45905;50.570;10.428;2023-08-12T10:06:40;4.60;;;2.87;;
60032;SDS011;45905;50.570;10.428;2023-08-12T10:09:09;4.03;;;3.10;;
60032;SDS011;45905;50.570;10.428;2023-08-12T10:11:37;7.07;;;2.90;;
60032;SDS011;45905;50.570;10.428;2023-08-12T10:14:06;4.23;;;2.70;;
60032;SDS011;45905;50.570;10.428;2023-08-12T10:16:35;3.27;;;2.97;;
60032;SDS011;45905;50.570;10.428;2023-08-12T10:19:04;4.73;;;2.83;;
60032;SDS011;45905;50.570;10.428;2023-08-12T10:21:32;4.23;;;2.90;;
60032;SDS011;45905;50.570;10.428;2023-08-12T10:24:01;6.80;;;3.00;;
60032;SDS011;45905;50.570;10.428;2023-08-12T10:26:31;3.10;;;2.80;;
60032;SDS011;45905;50.570;10.428;2023-08-12T10:28:59;3.27;;;2.70;;
60032;SDS011;45905;50.570;10.428;2023-08-12T10:31:27;3.70;;;3.30;;
60032;SDS011;45905;50.570;10.428;2023-08-12T10:33:57;3.30;;;2.70;;
60032;SDS011;45905;50.570;10.428;2023-08-12T10:36:25;7.17;;;3.20;;
60032;SDS011;45905;50.570;10.428;2023-08-12T10:38:55;4.20;;;3.13;;
60032;SDS011;45905;50.570;10.428;2023-08-12T10:41:24;4.47;;;3.07;;
60032;SDS011;45905;50.570;10.428;2023-08-12T10:43:57;9.23;;;3.00;;
60032;SDS011;45905;50.570;10.428;2023-08-12T10:49:04;3.23;;;2.93;;
60032;SDS011;45905;50.570;10.428;2023-08-12T10:51:46;5.03;;;3.60;;
60032;SDS011;45905;50.570;10.428;2023-08-12T11:02:19;3.87;;;2.93;;
60032;SDS011;45905;50.570;10.428;2023-08-12T11:05:04;3.10;;;2.30;;
60032;SDS011;45905;50.570;10.428;2023-08-12T11:07:43;3.00;;;2.70;;
60032;SDS011;45905;50.570;10.428;2023-08-12T11:10:19;3.87;;;3.10;;
60032;SDS011;45905;50.570;10.428;2023-08-12T11:15:19;3.17;;;2.73;;
60032;SDS011;45905;50.570;10.428;2023-08-12T11:18:03;4.70;;;3.57;;
60032;SDS011;45905;50.570;10.428;2023-08-12T11:20:39;7.13;;;3.30;;
60032;SDS011;45905;50.570;10.428;2023-08-12T11:23:07;6.40;;;3.33;;
60032;SDS011;45905;50.570;10.428;2023-08-12T11:25:37;4.80;;;3.00;;
60032;SDS011;45905;50.570;10.428;2023-08-12T11:28:06;3.57;;;3.10;;
60032;SDS011;45905;50.570;10.428;2023-08-12T11:30:34;4.97;;;2.77;;
60032;SDS011;45905;50.570;10.428;2023-08-12T11:33:02;4.93;;;2.50;;
60032;SDS011;45905;50.570;10.428;2023-08-12T11:35:30;6.73;;;3.10;;
60032;SDS011;45905;50.570;10.428;2023-08-12T11:37:58;3.53;;;2.63;;
60032;SDS011;45905;50.570;10.428;2023-08-12T11:40:26;5.43;;;2.97;;
60032;SDS011;45905;50.570;10.428;2023-08-12T11:42:55;2.90;;;2.30;;
60032;SDS011;45905;50.570;10.428;2023-08-12T11:45:24;3.70;;;3.00;;
60032;SDS011;45905;50.570;10.428;2023-08-12T11:47:53;5.43;;;3.27;;
60032;SDS011;45905;50.570;10.428;2023-08-12T11:50:23;3.97;;;2.73;;
60032;SDS011;45905;50.570;10.428;2023-08-12T11:52:55;5.07;;;3.20;;
60032;SDS011;45905;50.570;10.428;2023-08-12T11:55:23;3.30;;;2.90;;
60032;SDS011;45905;50.570;10.428;2023-08-12T11:57:51;4.63;;;2.70;;
60032;SDS011;45905;50.570;10.428;2023-08-12T12:00:19;5.93;;;2.77;;
60032;SDS011;45905;50.570;10.428;2023-08-12T12:02:54;3.63;;;3.00;;
60032;SDS011;45905;50.570;10.428;2023-08-12T12:05:23;3.07;;;2.50;;
60032;SDS011;45905;50.570;10.428;2023-08-12T12:07:54;4.13;;;2.90;;
60032;SDS011;45905;50.570;10.428;2023-08-12T12:10:28;3.10;;;2.27;;
60032;SDS011;45905;50.570;10.428;2023-08-12T12:13:01;4.87;;;2.40;;
60032;SDS011;45905;50.570;10.428;2023-08-12T12:15:31;4.07;;;2.90;;
60032;SDS011;45905;50.570;10.428;2023-08-12T12:18:09;3.80;;;2.60;;
60032;SDS011;45905;50.570;10.428;2023-08-12T12:20:58;3.87;;;2.30;;
60032;SDS011;45905;50.570;10.428;2023-08-12T12:23:30;2.77;;;1.80;;
60032;SDS011;45905;50.570;10.428;2023-08-12T12:26:01;3.43;;;2.30;;
60032;SDS011;45905;50.570;10.428;2023-08-12T12:28:30;3.60;;;2.43;;
60032;SDS011;45905;50.570;10.428;2023-08-12T12:30:58;10.33;;;2.67;;
60032;SDS011;45905;50.570;10.428;2023-08-12T12:33:25;2.90;;;2.23;;
60032;SDS011;45905;50.570;10.428;2023-08-12T12:35:54;4.33;;;2.70;;
60032;SDS011;45905;50.570;10.428;2023-08-12T12:38:26;4.00;;;2.07;;
60032;SDS011;45905;50.570;10.428;2023-08-12T12:40:54;6.07;;;2.80;;
60032;SDS011;45905;50.570;10.428;2023-08-12T12:43:22;3.27;;;1.97;;
60032;SDS011;45905;50.570;10.428;2023-08-12T12:45:49;3.20;;;2.40;;
60032;SDS011;45905;50.570;10.428;2023-08-12T12:48:16;3.33;;;2.27;;
60032;SDS011;45905;50.570;10.428;2023-08-12T12:50:43;5.00;;;3.00;;
60032;SDS011;45905;50.570;10.428;2023-08-12T12:53:11;4.40;;;2.30;;
60032;SDS011;45905;50.570;10.428;2023-08-12T12:55:38;6.33;;;2.90;;
60032;SDS011;45905;50.570;10.428;2023-08-12T12:58:05;3.87;;;2.13;;
60032;SDS011;45905;50.570;10.428;2023-08-12T13:00:37;2.57;;;2.37;;
60032;SDS011;45905;50.570;10.428;2023-08-12T13:03:04;5.23;;;2.53;;
60032;SDS011;45905;50.570;10.428;2023-08-12T13:05:32;8.50;;;2.50;;
60032;SDS011;45905;50.570;10.428;2023-08-12T13:07:59;4.20;;;2.63;;
60032;SDS011;45905;50.570;10.428;2023-08-12T13:10:26;3.60;;;2.93;;
60032;SDS011;45905;50.570;10.428;2023-08-12T13:12:54;3.70;;;2.50;;
60032;SDS011;45905;50.570;10.428;2023-08-12T13:15:21;2.83;;;2.10;;
60032;SDS011;45905;50.570;10.428;2023-08-12T13:17:50;3.60;;;2.20;;
60032;SDS011;45905;50.570;10.428;2023-08-12T13:20:18;5.40;;;2.80;;
60032;SDS011;45905;50.570;10.428;2023-08-12T13:22:45;2.77;;;2.33;;
60032;SDS011;45905;50.570;10.428;2023-08-12T13:25:12;3.40;;;2.80;;
60032;SDS011;45905;50.570;10.428;2023-08-12T13:27:39;6.90;;;2.70;;
60032;SDS011;45905;50.570;10.428;2023-08-12T13:30:07;6.33;;;1.70;;
60032;SDS011;45905;50.570;10.428;2023-08-12T13:32:34;4.67;;;2.33;;
60032;SDS011;45905;50.570;10.428;2023-08-12T13:35:02;4.27;;;3.17;;
60032;SDS011;45905;50.570;10.428;2023-08-12T13:37:31;11.47;;;5.20;;
60032;SDS011;45905;50.570;10.428;2023-08-12T13:40:01;3.00;;;1.73;;
60032;SDS011;45905;50.570;10.428;2023-08-12T13:42:29;2.47;;;2.20;;
60032;SDS011;45905;50.570;10.428;2023-08-12T13:44:57;5.13;;;2.10;;
60032;SDS011;45905;50.570;10.428;2023-08-12T13:47:26;4.70;;;1.70;;
60032;SDS011;45905;50.570;10.428;2023-08-12T13:49:53;3.30;;;2.10;;
60032;SDS011;45905;50.570;10.428;2023-08-12T13:52:21;3.63;;;1.80;;
60032;SDS011;45905;50.570;10.428;2023-08-12T13:54:48;2.37;;;1.70;;
60032;SDS011;45905;50.570;10.428;2023-08-12T13:57:16;2.90;;;1.77;;
60032;SDS011;45905;50.570;10.428;2023-08-12T13:59:43;2.50;;;1.60;;
60032;SDS011;45905;50.570;10.428;2023-08-12T14:02:10;4.60;;;1.70;;
60032;SDS011;45905;50.570;10.428;2023-08-12T14:04:38;6.63;;;1.77;;
60032;SDS011;45905;50.570;10.428;2023-08-12T14:07:05;4.30;;;1.83;;
60032;SDS011;45905;50.570;10.428;2023-08-12T14:09:34;1.37;;;1.23;;
60032;SDS011;45905;50.570;10.428;2023-08-12T14:12:01;5.97;;;1.70;;
60032;SDS011;45905;50.570;10.428;2023-08-12T14:14:29;3.07;;;1.37;;
60032;SDS011;45905;50.570;10.428;2023-08-12T14:16:57;2.70;;;1.67;;
60032;SDS011;45905;50.570;10.428;2023-08-12T14:19:24;1.60;;;1.13;;
60032;SDS011;45905;50.570;10.428;2023-08-12T14:21:51;5.10;;;1.73;;
60032;SDS011;45905;50.570;10.428;2023-08-12T14:24:19;8.40;;;4.17;;
60032;SDS011;45905;50.570;10.428;2023-08-12T14:26:46;6.30;;;2.53;;
60032;SDS011;45905;50.570;10.428;2023-08-12T14:29:13;2.70;;;1.53;;
60032;SDS011;45905;50.570;10.428;2023-08-12T14:31:40;2.00;;;1.07;;
60032;SDS011;45905;50.570;10.428;2023-08-12T14:34:08;2.13;;;1.10;;
60032;SDS011;45905;50.570;10.428;2023-08-12T14:36:35;2.93;;;1.37;;
60032;SDS011;45905;50.570;10.428;2023-08-12T14:39:02;2.27;;;1.47;;
60032;SDS011;45905;50.570;10.428;2023-08-12T14:41:30;1.63;;;0.97;;
60032;SDS011;45905;50.570;10.428;2023-08-12T14:43:57;2.27;;;1.50;;
60032;SDS011;45905;50.570;10.428;2023-08-12T14:46:24;1.70;;;1.17;;
60032;SDS011;45905;50.570;10.428;2023-08-12T14:48:52;1.40;;;0.90;;
60032;SDS011;45905;50.570;10.428;2023-08-12T14:51:20;2.30;;;0.90;;
60032;SDS011;45905;50.570;10.428;2023-08-12T14:53:47;5.00;;;1.10;;
60032;SDS011;45905;50.570;10.428;2023-08-12T14:56:14;2.53;;;1.27;;
60032;SDS011;45905;50.570;10.428;2023-08-12T14:58:42;1.10;;;0.70;;
60032;SDS011;45905;50.570;10.428;2023-08-12T15:01:11;1.10;;;0.80;;